Sonic Adventure (DX): Time Rankings

Records: Times | Rings | Scores | Races | Bosses | Freestyle
Leaders: Times | Rings | Scores | Races | Bosses | Freestyle | Overall
Rank Player Percent Points Date
1 Gamepro011 99.6% 17 03-17-17
2 Sonicspeedruner 98.8% 64 03-17-17
3 Dashjump 95.3% 256 03-17-17
4 Jawzun 95.3% 259 03-17-17
5 DarkPolarNight 93.1% 381 03-17-17
6 drminus 92.3% 426 03-17-17
7 F-Man 92.1% 435 03-17-17
8 THC98 91.8% 452 03-17-17
9 ike6252 89.7% 566 03-17-17
10 Avento128bits 89.3% 589 03-17-17
11 francisco 89.1% 602 03-17-17
12 DarkspinesSonic 88.5% 636 03-17-17
13 Marth 88.3% 645 03-17-17
14 ethmar 88.2% 650 03-17-17
15 frankoredstrato 87.1% 709 03-17-17
16 chainchumper 84.2% 872 03-17-17
17 Paragod 84.2% 874 03-17-17
18 HyperSonic7701 83.9% 889 03-17-17
19 TheRealShadnic 83.6% 907 03-17-17
20 xXMegaManXx 80.9% 1053 03-17-17
21 InferSaime 80.8% 1059 03-17-17
22 Coolfansonic 80.0% 1106 03-17-17
23 Stefan 79.3% 1144 03-17-17
24 Redd 78.9% 1166 03-17-17
25 PfoSonic 78.8% 1173 03-17-17
26 bertin 76.9% 1276 03-17-17
27 yoshifan 76.4% 1304 03-17-17
28 Dave Cramer 74.7% 1396 03-17-17
29 RPGnutter 74.4% 1414 03-17-17
30 sonicam 72.8% 1502 03-17-17
31 Cybrax 72.6% 1512 03-17-17
32 Ring Rush 70.0% 1658 03-17-17
33 mike89 69.2% 1703 03-17-17
34 NintenDan 69.0% 1716 03-17-17
35 a_moustache 68.0% 1768 03-17-17
36 Nimrod 67.2% 1812 03-17-17
37 SkyLights 65.4% 1915 03-17-17
38 Combo 63.9% 1996 03-17-17
39 SADXTryHard 62.0% 2099 03-17-17
40 P1 Pause 61.1% 2149 03-17-17
41 Groudon199 59.3% 2251 03-17-17
42 Game_Complete 59.0% 2267 03-17-17
43 AxlThunder 58.6% 2291 03-17-17
44 Shadow Jacky 58.5% 2296 03-17-17
45 VMU Player Banned 57.5% 2348 03-17-17
46 Thorn 57.3% 2362 03-17-17
47 SB737 56.2% 2421 03-17-17
48 The Knuckles Chao 56.2% 2424 03-17-17
49 SadisticMystic 55.8% 2446 03-17-17
50 Chao_Fan 55.7% 2450 03-17-17
51 chaos shadow 55.6% 2453 03-17-17
52 Parax 55.6% 2457 03-17-17
53 Mastakirby 55.2% 2476 03-17-17
54 KinkyCadence 54.9% 2495 03-17-17
55 LittleBigness 54.8% 2498 03-17-17
56 mauserman 54.8% 2501 03-17-17
57 OmegaDJ 54.6% 2509 03-17-17
58 Psyknux 54.4% 2524 03-17-17
59 Auriman1 54.1% 2539 03-17-17
60 magnum12 53.9% 2552 03-17-17
61 Turbos 53.5% 2570 03-17-17
62 GerbilSoft 53.0% 2597 03-17-17
63 GreatStar 52.7% 2616 03-17-17
64 Webber3000 52.3% 2637 03-17-17
65 Hipertails12 51.4% 2689 03-17-17
66 James_Bertolli 49.1% 2813 03-17-17
67 Cream147 48.7% 2838 03-17-17
68 welldooder64 48.0% 2877 03-17-17
69 Skylace 47.9% 2879 03-17-17
70 Quartz 47.6% 2898 03-17-17
71 Omega Rafael Santos 47.5% 2903 03-17-17
72 Psymar 47.4% 2908 03-17-17
73 Diamond 47.4% 2911 03-17-17
74 SonicWinDX 46.9% 2937 03-17-17
75 teamblackarms 46.3% 2971 03-17-17
76 Andrea Ritsu 45.7% 3006 03-17-17
77 buddychaos0415 45.4% 3022 03-17-17
78 SilverSonic 44.7% 3057 03-17-17
79 SilvertheAlmighty 44.1% 3090 03-17-17
80 itsPersonnal 43.9% 3104 03-17-17
81 WeegeeZV 43.9% 3105 03-17-17
82 metanightmare22 43.4% 3130 03-17-17
83 lordmetalsonic 41.2% 3250 03-17-17
84 Arch 40.8% 3272 03-17-17
85 Termon 40.0% 3319 03-17-17
86 videogamemaster777 39.8% 3329 03-17-17
87 supersonicfan 39.6% 3343 03-17-17
88 Drakodan 39.1% 3369 03-17-17
89 Kanimayo_Jp 38.8% 3385 03-17-17
90 LilZero 38.7% 3392 03-17-17
91 paulie9990 38.6% 3397 03-17-17
92 FuzZerd 38.4% 3407 03-17-17
93 supersonic465 38.3% 3414 03-17-17
94 eggFL 37.8% 3443 03-17-17
95 Don 37.1% 3477 03-17-17
96 danieldude 36.9% 3491 03-17-17
97 Siavash Tazari 36.1% 3532 03-17-17
98 Fr3nZy 35.8% 3550 03-17-17
99 Cod4Scopes 35.2% 3584 03-17-17
100 f0rever_zer0 35.2% 3586 03-17-17
101 Cyan Ryan 34.5% 3621 03-17-17
102 LinksDarkArrows 34.2% 3639 03-17-17
103 Therio 34.2% 3641 03-17-17
104 Austinf 33.9% 3656 03-17-17
105 BigAL49 33.7% 3670 03-17-17
106 elecmouse101 33.3% 3692 03-17-17
107 Staf 33.0% 3704 03-17-17
108 MiStEr_ShAoLiN 32.6% 3726 03-17-17
109 Twilisailor 32.4% 3741 03-17-17
110 BrokenArthritis 32.3% 3747 03-17-17
111 videogamer1014 32.1% 3755 03-17-17
112 N 31.7% 3776 03-17-17
113 Xia 31.5% 3787 03-17-17
114 AC-Tygo 31.3% 3802 03-17-17
115 welshmoose05 31.1% 3811 03-17-17
116 OddCook 30.5% 3846 03-17-17
117 The Great Lord Mick 30.2% 3862 03-17-17
118 Mcshuggets 29.7% 3887 03-17-17
119 Aitamen 29.6% 3894 03-17-17
120 Maxinfamily 29.5% 3898 03-17-17
121 Matt_TY 29.3% 3913 03-17-17
122 joecoolgames 29.2% 3914 03-17-17
123 dabestgamer 29.1% 3925 03-17-17
124 SuperBlitzCraig 28.9% 3936 03-17-17
125 imazor017 28.7% 3947 03-17-17
126 SuperSonic101 27.7% 4000 03-17-17
127 Shadowthegreat 27.6% 4004 03-17-17
128 superjupi 27.5% 4009 03-17-17
129 Rolken 27.2% 4027 03-17-17
130 thewaytodawnnn 27.0% 4038 03-17-17
131 Hunters13 27.0% 4039 03-17-17
132 sonamyfan666 26.7% 4057 03-17-17
133 iarebored 26.4% 4069 03-17-17
134 koinu93 26.4% 4071 03-17-17
135 Spinballwizard 26.3% 4076 03-17-17
136 SaviourDC 26.3% 4078 03-17-17
137 SonicKnuckles 26.2% 4085 03-17-17
138 EngiNerd 25.3% 4134 03-17-17
139 adf 25.1% 4141 03-17-17
140 Megaman EXE565 24.4% 4184 03-17-17
141 The T 24.1% 4198 03-17-17
142 Sonic Singularity 23.5% 4232 03-17-17
143 Platformer 23.3% 4243 03-17-17
144 Pokemonmaster888 23.1% 4252 03-17-17
145 SeaWolf 23.1% 4256 03-17-17
146 timpkmn89 22.8% 4270 03-17-17
147 Swift Hobo 22.5% 4285 03-17-17
148 Sondow 22.0% 4313 03-17-17
149 Rickyman48 22.0% 4317 03-17-17
150 KitsuneYamaro 21.4% 4348 03-17-17
151 FoxBoy 21.4% 4350 03-17-17
152 TFEC Headshot 20.9% 4375 03-17-17
153 Jerzia 20.7% 4385 03-17-17
154 Kogen Player Banned 20.6% 4393 03-17-17
155 SonataSpinDash 20.5% 4400 03-17-17
156 Starlight Sable 20.0% 4427 03-17-17
157 IsisDazs 19.4% 4457 03-17-17
158 HyperSonic64 19.3% 4463 03-17-17
159 Powerjohn25 19.3% 4464 03-17-17
160 crazy1993 19.0% 4482 03-17-17
161 andres430 18.8% 4495 03-17-17
162 SonicU260 17.9% 4545 03-17-17
163 SonicAD 17.4% 4568 03-17-17
164 MPit08 17.4% 4572 03-17-17
165 sonicd5 17.1% 4586 03-17-17
166 iSonicKid2K 16.7% 4606 03-17-17
167 dShadow 16.7% 4611 03-17-17
168 Cutiefox 16.1% 4644 03-17-17
169 Miles9999 16.0% 4646 03-17-17
170 Chawkk 16.0% 4647 03-17-17
171 Monkeh 15.8% 4656 03-17-17
172 DaDude 15.3% 4684 03-17-17
173 Drflash55 15.1% 4696 03-17-17
174 Badlex727 14.9% 4709 03-17-17
175 Bass 14.7% 4717 03-17-17
176 Cruizer 14.4% 4734 03-17-17
177 Yish 14.4% 4735 03-17-17
178 neaolas 14.4% 4736 03-17-17
179 Destroyer121121 14.4% 4738 03-17-17
180 zapp 14.3% 4742 03-17-17
181 UninspiredUsername 14.2% 4748 03-17-17
182 superiorsonic 14.1% 4753 03-17-17
183 gamefreak1292 13.8% 4768 03-17-17
184 Cooljay 13.4% 4790 03-17-17
185 Chaos_Overlord 12.9% 4819 03-17-17
186 Valfore 12.4% 4848 03-17-17
187 GarnetPrincess 12.2% 4858 03-17-17
188 soniccoloursunleashed 11.9% 4874 03-17-17
189 ShinigamiMachine 11.8% 4881 03-17-17
190 Sonicsuperstar1 11.3% 4906 03-17-17
191 booo95 11.0% 4926 03-17-17
192 FocusSight64 10.9% 4928 03-17-17
193 Werey 10.9% 4931 03-17-17
194 SirTobbii 10.8% 4934 03-17-17
195 Mo Player Banned 10.7% 4941 03-17-17
196 sonicspeed 10.5% 4953 03-17-17
197 Venick409 9.7% 4997 03-17-17
198 nman36 9.6% 5002 03-17-17
198 Sithwarrior26 9.6% 5002 03-17-17
200 ingx24 9.1% 5029 03-17-17
201 CyberShadow 9.0% 5035 03-17-17
202 dekki1234 8.8% 5047 03-17-17
203 Fozer 8.7% 5052 03-17-17
204 Colomb_30 8.5% 5062 03-17-17
205 Egor305 8.5% 5065 03-17-17
206 Regano1000 8.4% 5070 03-17-17
207 1stKirbyever 8.1% 5087 03-17-17
208 TimTH 7.9% 5095 03-17-17
209 nuckrieg 7.8% 5099 03-17-17
210 Brian_pso 7.7% 5107 03-17-17
211 douglas 7.6% 5114 03-17-17
212 Th4tN1nj4Turtl3 7.4% 5124 03-17-17
213 TakaRikka 7.4% 5125 03-17-17
213 Zip 7.4% 5125 03-17-17
215 Mariosonic15 7.0% 5143 03-17-17
216 wheatrich 7.0% 5145 03-17-17
217 ieatatsonic 6.7% 5165 03-17-17
218 MStitomix 6.6% 5166 03-17-17
219 niscool 6.6% 5167 03-17-17
220 HermitHelmet 6.6% 5168 03-17-17
221 Got4n 6.3% 5183 03-17-17
222 Cort_pso 6.3% 5186 03-17-17
223 Triseena 6.2% 5188 03-17-17
224 Jose_15 6.0% 5201 03-17-17
225 Artie 5.9% 5207 03-17-17
226 BlankTH 5.8% 5210 03-17-17
227 SuperSonicfan9595 5.8% 5212 03-17-17
228 Ace747 5.6% 5225 03-17-17
229 HHNNBBHHN 5.5% 5231 03-17-17
230 Richied 5.4% 5232 03-17-17
231 Paixii 5.2% 5243 03-17-17
232 Aiko 5.2% 5246 03-17-17
233 slade23 5.0% 5256 03-17-17
234 BallzeH 4.9% 5260 03-17-17
235 ArcticDragon 4.9% 5264 03-17-17
235 FSSRandomvids 4.9% 5264 03-17-17
237 Mankster101 4.8% 5266 03-17-17
238 BecauseWarAnvil 4.8% 5269 03-17-17
238 Jamixesa 4.8% 5269 03-17-17
238 PsyBorg 4.8% 5269 03-17-17
241 Nickson98 4.6% 5277 03-17-17
242 Crydio 4.6% 5280 03-17-17
243 TheUltraBlur 4.4% 5288 03-17-17
244 ReuelBrony 4.3% 5293 03-17-17
245 MarewBFN 4.3% 5297 03-17-17
246 stanski 4.2% 5301 03-17-17
247 tal39h 4.2% 5302 03-17-17
248 ALundstrom10 4.0% 5314 03-17-17
249 knuckles_sonic8 3.9% 5315 03-17-17
249 p0ker 3.9% 5315 03-17-17
251 Blue Infamy 3.9% 5318 03-17-17
252 ErrortheCucco 3.7% 5329 03-17-17
253 Rikum22 3.6% 5332 03-17-17
254 sonic1001 3.5% 5340 03-17-17
255 TheChaosEmeraIds 3.5% 5341 03-17-17
256 AJSIV 3.4% 5346 03-17-17
257 syco1098 3.4% 5347 03-17-17
258 Sonic the Hedgehod16 3.3% 5349 03-17-17
259 Calfd 3.2% 5358 03-17-17
259 sonicfan9 3.2% 5358 03-17-17
261 MK 2.9% 5370 03-17-17
262 themachoman202 2.9% 5371 03-17-17
263 Fivavoa 2.7% 5381 03-17-17
263 Mr. Jones 2.7% 5381 03-17-17
265 BlackArmsShadow 2.7% 5383 03-17-17
265 djmat 2.7% 5383 03-17-17
267 arcfx1985 2.7% 5384 03-17-17
268 ptorflaxendrosis 2.7% 5386 03-17-17
269 Sonique Hedgehog 2.6% 5388 03-17-17
270 FlandreScarlet9999vr 2.6% 5391 03-17-17
271 Zeldocto 2.5% 5394 03-17-17
272 BeeAwwb 2.4% 5399 03-17-17
273 KaM Mark MaK 2.4% 5400 03-17-17
274 ShadouZaHejjihoggu 2.3% 5406 03-17-17
275 darkstarblaze 2.2% 5410 03-17-17
276 Sonic The Star 2.2% 5413 03-17-17
277 darkersupershadic 2.2% 5414 03-17-17
278 SpiritDragon1995 2.1% 5415 03-17-17
279 Sarger001 2.1% 5418 03-17-17
280 Grady219 2.0% 5421 03-17-17
280 sonic29887 2.0% 5421 03-17-17
282 shadowblast63 Player Banned 1.9% 5426 03-17-17
283 Jawaah 1.9% 5427 03-17-17
284 Antek 1.8% 5431 03-17-17
285 Klaus 1.8% 5433 03-17-17
286 BioShadow 1.8% 5436 03-17-17
287 SkyBon 1.4% 5454 03-17-17
288 Shanekilz 1.4% 5455 03-17-17
289 isaihtb11 1.4% 5458 03-17-17
290 OhNoes! 1.3% 5460 03-17-17
291 zaktu40 1.3% 5461 03-17-17
292 gaara1234 1.3% 5464 03-17-17
293 S-MS32X-S 1.2% 5465 03-17-17
294 MastaToken 1.1% 5471 03-17-17
295 Mister_Slick 1.1% 5475 03-17-17
296 Sonic06Fan 1.0% 5478 03-17-17
297 Rush Hero 1.0% 5480 03-17-17
298 SonicMega167 0.9% 5485 03-17-17
299 oTaiIilLsS 0.9% 5486 03-17-17
300 gamed00d 0.8% 5488 03-17-17
300 SilverK 0.8% 5488 03-17-17
302 Burningskull123 0.5% 5504 03-17-17
303 Heroes_Hater 0.5% 5506 03-17-17
304 Sonicontherun 0.3% 5515 03-17-17
305 antiwwe 0.2% 5521 03-17-17
306 Iwannabelink 0.2% 5523 03-17-17
307 Genuine Hedgehog 0.1% 5525 03-17-17
308 dragondragon18 0.1% 5529 03-17-17
309 SonicK100 0.1% 5530 03-17-17
310 Tyrouble 0.0% 5535 03-17-17
311 LancexExWx 0.0% 5536 03-17-17
311 neji_hyuuga 0.0% 5536 03-17-17
311 Over 0.0% 5536 03-17-17
311 sdj6707 Player Banned 0.0% 5536 03-17-17
311 Tran Sonic Fan Player Banned 0.0% 5536 03-17-17

This page is using the New Data Table System. [FUTURE]

Game ID: 3 | Category ID: 1
Hits: 8,469 | Hits This Month: 24 | DB Calls: 24 | Mem Usage: 5.47 MB | Time: 0.24s | Printable

The Sonic Center v3.9
Copyright 2003-2011 by The Sonic Center Team.